Time;durP1;ratioP1;P1;durP2;ratioP2;P2;SDS_P1;SDS_P2;PMS_P1;PMS_P2;Temp;Humidity;BMP_temperature;BMP_pressure;BME280_temperature;BME280_humidity;BME280_pressure;Samples;Min_cycle;Max_cycle;Signal;HPM_P1;HPM_P2
2021/09/23 00:01:51;;;;;;;24.90;6.82;;;;;;;7.99;100.00;102347.19;5172197;28;20125;-68
2021/09/23 00:04:32;;;;;;;17.35;7.82;;;;;;;7.92;100.00;102337.88;5183721;28;20033;-68
2021/09/23 00:07:03;;;;;;;40.88;8.43;;;;;;;7.84;100.00;102334.94;5183308;28;20052;-70
2021/09/23 00:09:34;;;;;;;15.70;7.88;;;;;;;7.77;100.00;102328.31;5176645;28;20588;-70
2021/09/23 00:12:05;;;;;;;17.02;9.75;;;;;;;7.72;100.00;102323.31;5183469;28;20048;-70
2021/09/23 00:14:35;;;;;;;20.95;9.82;;;;;;;7.70;100.00;102313.72;5181741;28;20045;-69
2021/09/23 00:17:06;;;;;;;17.73;9.13;;;;;;;7.68;100.00;102302.28;5172250;28;20025;-69
2021/09/23 00:19:36;;;;;;;20.15;9.20;;;;;;;7.67;100.00;102304.09;5167262;28;20803;-70
2021/09/23 00:22:06;;;;;;;16.48;8.20;;;;;;;7.65;100.00;102305.19;5172891;28;20025;-70
2021/09/23 00:24:37;;;;;;;14.18;7.80;;;;;;;7.67;100.00;102311.25;5179473;28;20466;-69
2021/09/23 00:27:08;;;;;;;13.40;6.85;;;;;;;7.68;100.00;102319.19;5163373;28;20030;-70
2021/09/23 00:29:38;;;;;;;17.42;9.13;;;;;;;7.71;100.00;102332.28;5162745;28;20529;-70
2021/09/23 00:32:09;;;;;;;17.15;8.63;;;;;;;7.72;100.00;102325.13;5175375;28;20371;-70
2021/09/23 00:34:39;;;;;;;17.02;9.70;;;;;;;7.73;100.00;102327.72;5183200;28;20022;-70
2021/09/23 00:37:10;;;;;;;17.63;8.80;;;;;;;7.74;100.00;102329.41;5169898;28;20038;-69
2021/09/23 00:39:40;;;;;;;19.08;9.65;;;;;;;7.78;100.00;102319.34;5175677;28;20508;-69
2021/09/23 00:42:11;;;;;;;20.50;9.82;;;;;;;7.78;100.00;102312.19;5175500;28;20026;-70
2021/09/23 00:44:56;;;;;;;23.70;8.73;;;;;;;7.72;100.00;102319.78;5161675;28;20101;-69
2021/09/23 00:47:27;;;;;;;17.60;9.88;;;;;;;7.66;100.00;102314.91;5162713;28;20038;-69
2021/09/23 00:49:58;;;;;;;18.08;8.98;;;;;;;7.64;100.00;102306.16;5162376;28;20022;-69
2021/09/23 00:52:31;;;;;;;14.85;8.90;;;;;;;7.60;100.00;102310.84;5181784;28;20099;-70
2021/09/23 00:55:03;;;;;;;16.33;8.60;;;;;;;7.56;100.00;102293.34;5169568;28;20092;-69
2021/09/23 00:57:34;;;;;;;22.33;9.48;;;;;;;7.55;100.00;102293.47;5162513;28;20038;-70
2021/09/23 01:00:09;;;;;;;17.58;10.50;;;;;;;7.59;100.00;102282.44;5159366;28;20057;-70
2021/09/23 01:02:40;;;;;;;16.15;8.93;;;;;;;7.65;100.00;102287.34;5180355;28;20545;-70
2021/09/23 01:05:11;;;;;;;19.23;9.13;;;;;;;7.69;100.00;102285.31;5165488;28;20022;-70
2021/09/23 01:07:45;;;;;;;19.48;9.68;;;;;;;7.68;100.00;102280.91;5174127;28;20040;-70
2021/09/23 01:10:18;;;;;;;18.30;9.90;;;;;;;7.63;100.00;102283.94;5163292;28;20066;-70
2021/09/23 01:12:49;;;;;;;20.73;9.75;;;;;;;7.57;100.00;102265.66;5163044;28;20483;-70
2021/09/23 01:15:20;;;;;;;17.00;7.78;;;;;;;7.49;100.00;102258.22;5174509;28;20041;-69
2021/09/23 01:17:50;;;;;;;18.98;9.48;;;;;;;7.42;100.00;102264.97;5161922;28;20328;-69
2021/09/23 01:20:22;;;;;;;17.70;9.23;;;;;;;7.51;100.00;102266.97;5162103;28;20381;-69
2021/09/23 01:22:58;;;;;;;18.98;9.52;;;;;;;7.55;100.00;102256.94;5175440;28;20033;-69
2021/09/23 01:25:29;;;;;;;21.10;9.52;;;;;;;7.48;100.00;102247.63;5174044;28;20026;-68
2021/09/23 01:28:00;;;;;;;19.20;8.75;;;;;;;7.43;100.00;102255.13;5163796;28;20153;-69
2021/09/23 01:30:30;;;;;;;21.63;9.75;;;;;;;7.48;100.00;102250.31;5161678;28;20949;-70
2021/09/23 01:33:01;;;;;;;19.15;9.38;;;;;;;7.47;100.00;102251.28;5161887;28;20400;-70
2021/09/23 01:35:31;;;;;;;21.42;9.02;;;;;;;7.46;100.00;102247.75;5174926;28;20239;-69
2021/09/23 01:38:02;;;;;;;22.38;9.60;;;;;;;7.40;100.00;102253.56;5162291;28;20114;-69
2021/09/23 01:40:36;;;;;;;19.48;8.25;;;;;;;7.34;100.00;102251.34;5176208;28;20018;-68
2021/09/23 01:43:07;;;;;;;19.10;8.05;;;;;;;7.30;100.00;102241.84;5181644;28;20753;-70
2021/09/23 01:45:40;;;;;;;16.42;8.30;;;;;;;7.27;100.00;102244.72;5178515;28;20046;-70
2021/09/23 01:48:10;;;;;;;19.35;8.40;;;;;;;7.23;100.00;102241.44;5161650;28;20458;-70
2021/09/23 01:50:42;;;;;;;22.40;8.52;;;;;;;7.28;100.00;102235.78;5174632;28;20345;-70
2021/09/23 01:53:13;;;;;;;18.42;8.90;;;;;;;7.41;100.00;102235.72;5173153;28;20088;-70
2021/09/23 01:55:43;;;;;;;16.13;8.43;;;;;;;7.41;100.00;102236.56;5181509;28;20033;-71
2021/09/23 01:58:14;;;;;;;21.73;9.25;;;;;;;7.36;100.00;102235.19;5181809;28;20110;-70
2021/09/23 02:00:45;;;;;;;17.50;9.05;;;;;;;7.32;100.00;102231.88;5181436;28;20391;-71
2021/09/23 02:03:16;;;;;;;18.00;9.07;;;;;;;7.27;100.00;102223.34;5177533;28;20033;-71
2021/09/23 02:05:46;;;;;;;19.60;8.88;;;;;;;7.24;100.00;102219.13;5161338;28;20026;-70
2021/09/23 02:08:17;;;;;;;20.92;9.88;;;;;;;7.21;100.00;102215.81;5171384;28;20479;-70
2021/09/23 02:10:48;;;;;;;19.88;8.95;;;;;;;7.23;100.00;102224.56;5170857;28;20026;-70
2021/09/23 02:13:18;;;;;;;22.25;9.65;;;;;;;7.26;100.00;102221.66;5165297;28;20444;-70
2021/09/23 02:15:49;;;;;;;17.25;9.20;;;;;;;7.22;100.00;102210.34;5181708;28;20548;-70
2021/09/23 02:18:20;;;;;;;23.02;9.75;;;;;;;7.19;100.00;102212.41;5180994;28;20030;-70
2021/09/23 02:20:50;;;;;;;21.40;9.55;;;;;;;7.16;100.00;102209.94;5181378;28;20049;-69
2021/09/23 02:23:20;;;;;;;19.95;8.80;;;;;;;7.12;100.00;102209.31;5181119;28;20277;-70
2021/09/23 02:25:51;;;;;;;16.88;9.45;;;;;;;7.16;100.00;102215.28;5181306;28;20029;-68
2021/09/23 02:28:22;;;;;;;22.17;9.32;;;;;;;7.18;100.00;102208.03;5172924;28;20030;-70
2021/09/23 02:30:52;;;;;;;19.98;9.73;;;;;;;7.19;100.00;102215.06;5162518;28;20026;-73
2021/09/23 02:33:23;;;;;;;20.48;9.70;;;;;;;7.15;100.00;102203.75;5171906;28;20049;-73
2021/09/23 02:35:53;;;;;;;17.83;9.60;;;;;;;7.08;100.00;102202.50;5174161;28;20069;-73
2021/09/23 02:38:24;;;;;;;19.80;9.80;;;;;;;6.98;100.00;102196.13;5160990;28;20077;-72
2021/09/23 02:40:55;;;;;;;19.65;9.68;;;;;;;6.92;100.00;102189.38;5177714;28;20096;-73
2021/09/23 02:43:26;;;;;;;21.98;9.32;;;;;;;6.90;100.00;102198.47;5169684;28;20034;-72
2021/09/23 02:45:56;;;;;;;21.25;10.32;;;;;;;6.88;100.00;102200.41;5166539;28;20037;-72
2021/09/23 02:48:27;;;;;;;21.88;9.77;;;;;;;6.87;100.00;102202.19;5181305;28;20022;-71
2021/09/23 02:50:57;;;;;;;28.50;11.27;;;;;;;6.87;100.00;102193.34;5156406;28;20383;-73
2021/09/23 02:53:28;;;;;;;21.88;11.10;;;;;;;6.85;100.00;102190.81;5144462;28;20065;-72
2021/09/23 02:55:58;;;;;;;20.92;10.77;;;;;;;6.84;100.00;102198.94;5172784;28;20038;-73
2021/09/23 02:58:29;;;;;;;20.95;11.07;;;;;;;6.86;100.00;102203.19;5173683;28;20022;-73
2021/09/23 03:00:59;;;;;;;23.73;10.93;;;;;;;6.86;100.00;102191.66;5163166;28;20100;-69
2021/09/23 03:03:30;;;;;;;21.17;10.40;;;;;;;6.85;100.00;102189.97;5178483;28;20432;-69
2021/09/23 03:06:00;;;;;;;22.40;9.50;;;;;;;6.81;100.00;102191.97;5169911;28;20133;-69
2021/09/23 03:08:31;;;;;;;17.55;8.57;;;;;;;6.75;100.00;102197.75;5176971;28;20026;-69
2021/09/23 03:11:02;;;;;;;16.65;8.75;;;;;;;6.71;100.00;102186.44;5164250;28;20434;-69
2021/09/23 03:13:33;;;;;;;22.02;10.77;;;;;;;6.71;100.00;102177.59;5170772;28;20034;-69
2021/09/23 03:16:04;;;;;;;21.25;8.63;;;;;;;6.58;100.00;102158.09;5184777;28;20033;-69
2021/09/23 03:18:34;;;;;;;27.25;11.77;;;;;;;6.58;100.00;102158.09;5184590;28;20061;-69
2021/09/23 03:21:05;;;;;;;30.50;14.65;;;;;;;6.77;100.00;102166.47;5171789;28;20058;-69
2021/09/23 03:23:35;;;;;;;29.00;12.00;;;;;;;6.83;100.00;102155.41;5175837;28;20026;-70
2021/09/23 03:26:06;;;;;;;26.65;12.27;;;;;;;6.91;100.00;102149.50;5164284;28;20098;-69
2021/09/23 03:28:37;;;;;;;27.98;11.85;;;;;;;6.97;100.00;102143.72;5164159;28;20479;-69
2021/09/23 03:31:07;;;;;;;20.70;11.20;;;;;;;6.92;100.00;102138.69;5163599;28;20026;-69
2021/09/23 03:33:38;;;;;;;24.33;11.10;;;;;;;6.88;100.00;102142.56;5164145;28;20084;-69
2021/09/23 03:36:08;;;;;;;25.33;11.00;;;;;;;6.84;100.00;102141.09;5182393;28;20029;-69
2021/09/23 03:38:41;;;;;;;34.58;14.43;;;;;;;6.85;100.00;102129.44;5172575;28;20033;-69
2021/09/23 03:41:11;;;;;;;31.58;13.18;;;;;;;6.99;100.00;102133.78;5170468;28;20041;-69
2021/09/23 03:43:42;;;;;;;31.35;13.73;;;;;;;7.11;100.00;102129.38;5183470;28;20049;-70
2021/09/23 03:46:12;;;;;;;36.65;16.08;;;;;;;7.18;100.00;102119.97;5176394;28;20073;-70
2021/09/23 03:48:44;;;;;;;36.15;14.43;;;;;;;7.20;100.00;102121.53;5165632;28;20279;-70
2021/09/23 03:51:14;;;;;;;27.05;11.90;;;;;;;7.21;100.00;102114.38;5174593;28;20029;-70
2021/09/23 03:53:45;;;;;;;28.65;12.85;;;;;;;7.15;100.00;102107.69;5176826;28;20049;-70
2021/09/23 03:56:16;;;;;;;33.22;14.48;;;;;;;7.15;100.00;102115.69;5163410;28;20395;-70
2021/09/23 03:58:46;;;;;;;34.58;14.07;;;;;;;7.23;100.00;102126.66;5167766;28;20030;-69
2021/09/23 04:01:17;;;;;;;31.50;13.40;;;;;;;7.38;100.00;102134.47;5176466;28;20026;-69
2021/09/23 04:03:47;;;;;;;40.60;14.80;;;;;;;7.44;100.00;102134.88;5182226;28;20472;-69
2021/09/23 04:06:18;;;;;;;39.13;14.90;;;;;;;7.43;100.00;102130.53;5170578;28;20415;-69
2021/09/23 04:08:49;;;;;;;32.15;13.65;;;;;;;7.41;100.00;102127.09;5176968;28;20029;-69
2021/09/23 04:11:20;;;;;;;33.63;13.02;;;;;;;7.36;100.00;102131.06;5146853;28;20105;-70
2021/09/23 04:13:50;;;;;;;29.20;13.25;;;;;;;7.31;100.00;102133.25;5175576;28;20052;-69
2021/09/23 04:16:21;;;;;;;31.00;12.63;;;;;;;7.24;100.00;102131.03;5178596;28;20026;-69
2021/09/23 04:18:51;;;;;;;30.50;13.38;;;;;;;7.21;100.00;102125.91;5183060;28;20574;-69
2021/09/23 04:21:22;;;;;;;27.38;12.77;;;;;;;7.17;100.00;102115.56;5165753;28;20029;-69
2021/09/23 04:23:52;;;;;;;33.78;12.68;;;;;;;7.12;100.00;102117.72;5183509;28;20025;-69
2021/09/23 04:26:23;;;;;;;31.25;12.55;;;;;;;7.10;100.00;102117.00;5179193;28;20027;-69
2021/09/23 04:28:54;;;;;;;26.05;12.00;;;;;;;7.06;100.00;102113.69;5162779;28;20034;-70
2021/09/23 04:31:24;;;;;;;31.35;13.55;;;;;;;7.05;100.00;102114.66;5176170;28;20026;-70
2021/09/23 04:33:55;;;;;;;32.15;14.32;;;;;;;7.14;100.00;102116.66;5174999;28;20116;-70
2021/09/23 04:36:25;;;;;;;32.03;13.30;;;;;;;7.20;100.00;102116.19;5170058;28;20071;-70
2021/09/23 04:38:56;;;;;;;29.92;13.57;;;;;;;7.20;100.00;102124.22;5182511;28;20022;-69
2021/09/23 04:41:26;;;;;;;31.23;12.45;;;;;;;7.17;100.00;102136.91;5175276;28;20097;-69
2021/09/23 04:43:57;;;;;;;30.48;13.35;;;;;;;7.19;100.00;102129.66;5177243;28;20746;-69
2021/09/23 04:46:28;;;;;;;39.50;12.43;;;;;;;7.17;100.00;102129.75;5182764;28;20258;-70
2021/09/23 04:48:58;;;;;;;32.38;12.32;;;;;;;7.14;100.00;102126.47;5182634;28;20395;-69
2021/09/23 04:51:29;;;;;;;26.48;12.25;;;;;;;7.08;100.00;102127.78;5172639;28;20027;-70
2021/09/23 04:54:01;;;;;;;28.80;13.13;;;;;;;7.04;100.00;102136.97;5175242;28;20113;-70
2021/09/23 04:56:32;;;;;;;27.17;12.43;;;;;;;7.26;100.00;102146.91;5173922;28;20030;-69
2021/09/23 04:59:03;;;;;;;32.15;13.23;;;;;;;7.29;100.00;102149.38;5163189;28;20103;-70
2021/09/23 05:01:34;;;;;;;28.02;12.75;;;;;;;7.31;100.00;102160.78;5158069;28;20084;-68
2021/09/23 05:04:04;;;;;;;31.73;12.85;;;;;;;7.22;100.00;102159.63;5173993;28;20030;-68
2021/09/23 05:06:35;;;;;;;28.52;12.60;;;;;;;7.14;100.00;102156.69;5164813;28;20026;-68
2021/09/23 05:09:05;;;;;;;28.70;13.13;;;;;;;7.05;100.00;102170.69;5181696;28;20033;-68
2021/09/23 05:11:36;;;;;;;37.83;14.57;;;;;;;7.12;100.00;102171.09;5178976;28;20062;-69
2021/09/23 05:14:07;;;;;;;29.25;12.95;;;;;;;7.11;100.00;102159.56;5172674;28;20025;-68
2021/09/23 05:16:43;;;;;;;26.58;13.30;;;;;;;7.07;100.00;102154.56;5164560;28;20033;-69
2021/09/23 05:19:14;;;;;;;32.22;13.82;;;;;;;7.01;100.00;102148.72;5174339;28;20041;-69
2021/09/23 05:21:44;;;;;;;32.92;13.40;;;;;;;6.96;100.00;102142.00;5175031;28;20050;-69
2021/09/23 05:24:17;;;;;;;32.47;14.13;;;;;;;6.91;100.00;102138.81;5175397;28;20137;-69
2021/09/23 05:26:47;;;;;;;36.53;15.52;;;;;;;6.90;100.00;102132.63;5182290;28;20356;-69
2021/09/23 05:29:18;;;;;;;49.05;18.02;;;;;;;6.96;100.00;102139.34;5165814;28;20021;-69
2021/09/23 05:31:48;;;;;;;43.78;18.23;;;;;;;7.01;100.00;102132.69;5170966;28;20018;-70
2021/09/23 05:34:19;;;;;;;47.78;16.30;;;;;;;6.99;100.00;102123.97;5181775;28;20352;-69
2021/09/23 05:36:49;;;;;;;43.55;18.30;;;;;;;7.04;100.00;102104.97;5182263;28;20025;-70
2021/09/23 05:39:20;;;;;;;49.38;19.02;;;;;;;7.11;100.00;102100.84;5163654;28;20031;-70
2021/09/23 05:41:50;;;;;;;62.50;22.98;;;;;;;7.21;100.00;102098.38;5172923;28;20542;-69
2021/09/23 05:44:26;;;;;;;54.83;22.17;;;;;;;7.29;100.00;102092.47;5168382;28;20034;-69
2021/09/23 05:46:57;;;;;;;56.45;23.55;;;;;;;7.36;100.00;102091.03;5181539;28;20100;-70
2021/09/23 05:49:28;;;;;;;56.78;22.00;;;;;;;7.44;100.00;102088.66;5181699;28;20462;-69
2021/09/23 05:51:59;;;;;;;50.28;20.80;;;;;;;7.49;100.00;102078.47;5166608;28;20018;-69
2021/09/23 05:54:30;;;;;;;48.97;19.23;;;;;;;7.47;100.00;102075.91;5153042;28;20205;-69
2021/09/23 05:57:01;;;;;;;46.53;19.55;;;;;;;7.48;100.00;102077.63;5181143;28;20026;-69
2021/09/23 05:59:32;;;;;;;45.50;18.02;;;;;;;7.51;100.00;102071.19;5180999;28;20026;-73
2021/09/23 06:02:02;;;;;;;39.55;17.05;;;;;;;7.58;100.00;102082.25;5181121;28;20378;-72
2021/09/23 06:04:33;;;;;;;44.70;17.23;;;;;;;7.68;100.00;102083.25;5163698;28;20491;-72
2021/09/23 06:07:03;;;;;;;49.70;19.15;;;;;;;7.77;100.00;102079.88;5174669;28;20030;-72
2021/09/23 06:09:34;;;;;;;40.55;18.98;;;;;;;7.86;100.00;102076.50;5143241;28;20062;-72
2021/09/23 06:12:05;;;;;;;47.35;19.58;;;;;;;8.00;100.00;102078.09;5168273;28;20411;-72
2021/09/23 06:14:36;;;;;;;41.63;17.10;;;;;;;8.12;100.00;102084.31;5166246;28;20034;-72
2021/09/23 06:17:06;;;;;;;40.17;16.77;;;;;;;8.27;100.00;102094.63;5170038;28;20053;-73
2021/09/23 06:19:37;;;;;;;39.60;16.50;;;;;;;8.62;100.00;102092.84;5167487;28;20036;-73
2021/09/23 06:22:08;;;;;;;44.60;17.05;;;;;;;8.97;100.00;102090.84;5170840;28;20023;-71
2021/09/23 06:24:38;;;;;;;49.10;19.10;;;;;;;9.30;100.00;102105.09;5173920;28;20057;-68
2021/09/23 06:27:09;;;;;;;40.88;17.15;;;;;;;9.63;100.00;102097.88;5160419;28;20424;-68
2021/09/23 06:29:39;;;;;;;28.33;14.25;;;;;;;10.05;100.00;102102.28;5175877;28;20025;-68
2021/09/23 06:32:10;;;;;;;29.40;15.13;;;;;;;10.44;100.00;102094.47;5179852;28;20030;-68
2021/09/23 06:34:40;;;;;;;34.15;16.38;;;;;;;10.83;100.00;102090.03;5179128;28;20033;-68
2021/09/23 06:37:13;;;;;;;32.15;15.52;;;;;;;11.22;100.00;102092.81;5149038;28;20026;-71
2021/09/23 06:39:43;;;;;;;32.40;14.88;;;;;;;11.76;100.00;102095.91;5171293;28;20031;-69
2021/09/23 06:42:16;;;;;;;31.35;14.55;;;;;;;12.25;100.00;102091.28;5147196;28;20356;-69
2021/09/23 06:44:47;;;;;;;28.65;15.15;;;;;;;12.67;100.00;102086.28;5183559;28;20525;-69
2021/09/23 06:47:17;;;;;;;35.03;16.80;;;;;;;12.98;100.00;102096.75;5166275;28;20030;-69
2021/09/23 06:49:51;;;;;;;29.52;15.32;;;;;;;13.17;100.00;102083.97;5173951;28;20036;-69
2021/09/23 06:52:21;;;;;;;28.83;15.00;;;;;;;13.39;100.00;102084.56;5178379;28;20394;-69
2021/09/23 06:54:53;;;;;;;27.20;14.48;;;;;;;13.88;100.00;102085.81;5146098;28;20023;-69
2021/09/23 06:57:24;;;;;;;27.63;14.55;;;;;;;13.93;100.00;102072.69;5163054;28;20129;-69
2021/09/23 06:59:54;;;;;;;32.95;16.85;;;;;;;14.24;100.00;102080.28;5162748;28;20128;-69
2021/09/23 07:02:25;;;;;;;28.98;15.20;;;;;;;14.24;100.00;102081.13;5175491;28;20025;-69
2021/09/23 07:04:55;;;;;;;29.55;15.77;;;;;;;14.22;100.00;102066.13;5184422;28;20032;-70
2021/09/23 07:07:26;;;;;;;28.90;15.85;;;;;;;14.17;100.00;102066.59;5180545;28;20024;-69
2021/09/23 07:10:00;;;;;;;34.63;17.35;;;;;;;14.49;100.00;102073.19;5170103;28;20026;-69
2021/09/23 07:12:30;;;;;;;30.48;17.17;;;;;;;14.76;100.00;102072.13;5172304;28;20049;-69
2021/09/23 07:15:01;;;;;;;30.90;17.42;;;;;;;15.02;100.00;102067.47;5175892;28;20018;-69
2021/09/23 07:17:33;;;;;;;30.13;17.77;;;;;;;15.29;100.00;102070.88;5163820;28;20432;-69
2021/09/23 07:20:04;;;;;;;36.53;18.50;;;;;;;15.83;100.00;102070.41;5175801;28;20113;-69
2021/09/23 07:22:35;;;;;;;41.17;18.40;;;;;;;15.77;100.00;102071.94;5175912;28;20061;-69
2021/09/23 07:25:05;;;;;;;33.63;18.08;;;;;;;16.07;100.00;102077.63;5170488;28;20107;-69
2021/09/23 07:27:36;;;;;;;36.28;18.88;;;;;;;16.43;100.00;102075.31;5167940;28;20411;-69
2021/09/23 07:30:07;;;;;;;34.03;18.30;;;;;;;16.97;100.00;102075.44;5171564;28;20501;-70
2021/09/23 07:32:38;;;;;;;32.03;17.67;;;;;;;16.73;100.00;102071.84;5180044;28;20034;-69
2021/09/23 07:35:09;;;;;;;35.33;19.60;;;;;;;16.94;100.00;102073.06;5154806;28;20025;-70
2021/09/23 07:37:40;;;;;;;35.50;20.08;;;;;;;17.16;100.00;102074.94;5165875;28;20034;-70
2021/09/23 07:40:11;;;;;;;33.60;20.90;;;;;;;17.32;100.00;102080.28;5162128;28;20391;-70
2021/09/23 07:42:42;;;;;;;34.83;19.63;;;;;;;17.52;100.00;102083.34;5174990;28;20034;-70
2021/09/23 07:45:12;;;;;;;41.35;21.13;;;;;;;17.82;100.00;102083.44;5175056;28;20307;-70
2021/09/23 07:47:43;;;;;;;33.20;20.27;;;;;;;17.97;100.00;102076.19;5169775;28;20136;-70
2021/09/23 07:50:14;;;;;;;35.28;18.58;;;;;;;18.06;100.00;102063.34;5182234;28;20406;-71
2021/09/23 07:52:45;;;;;;;35.63;18.80;;;;;;;18.35;100.00;102060.66;5173842;28;20018;-70
2021/09/23 07:55:15;;;;;;;36.67;19.83;;;;;;;18.33;100.00;102054.56;5144936;28;20045;-70
2021/09/23 07:57:46;;;;;;;39.83;20.73;;;;;;;18.26;100.00;102042.75;5162825;28;20028;-70
2021/09/23 08:00:17;;;;;;;37.25;20.40;;;;;;;18.11;100.00;102047.34;5161928;28;20092;-70
2021/09/23 08:02:48;;;;;;;37.38;19.92;;;;;;;18.41;100.00;102044.63;5177469;28;20434;-70
2021/09/23 08:05:19;;;;;;;35.28;20.17;;;;;;;18.54;100.00;102044.81;5182263;28;20392;-70
2021/09/23 08:07:49;;;;;;;39.80;21.58;;;;;;;18.74;100.00;102040.47;5158791;28;20065;-70
2021/09/23 08:10:20;;;;;;;41.13;21.08;;;;;;;18.70;100.00;102044.63;5144024;28;20035;-70
2021/09/23 08:12:51;;;;;;;37.92;21.40;;;;;;;18.73;100.00;102041.53;5144664;28;20030;-70
2021/09/23 08:15:21;;;;;;;48.90;22.08;;;;;;;18.49;100.00;102037.22;5162073;28;20026;-70
2021/09/23 08:17:52;;;;;;;35.78;20.83;;;;;;;18.94;100.00;102034.44;5175204;28;20025;-70
2021/09/23 08:20:23;;;;;;;40.63;19.95;;;;;;;19.20;100.00;102031.13;5171130;28;20033;-70
2021/09/23 08:22:54;;;;;;;30.45;18.63;;;;;;;19.25;100.00;102026.78;5148293;28;20073;-70
2021/09/23 08:25:24;;;;;;;34.65;19.33;;;;;;;19.10;100.00;102023.28;5172376;28;20045;-70
2021/09/23 08:27:55;;;;;;;39.05;20.60;;;;;;;19.09;100.00;102008.84;5164406;28;20368;-70
2021/09/23 08:30:25;;;;;;;36.20;20.15;;;;;;;19.15;100.00;102009.94;5173494;28;20333;-71
2021/09/23 08:32:56;;;;;;;34.97;19.77;;;;;;;19.11;100.00;102023.09;5176479;28;20065;-71
2021/09/23 08:35:27;;;;;;;35.08;20.08;;;;;;;18.86;100.00;102008.19;5174182;28;20391;-71
2021/09/23 08:37:57;;;;;;;39.00;21.48;;;;;;;18.46;100.00;102007.69;5169005;28;20478;-70
2021/09/23 08:40:28;;;;;;;37.35;22.05;;;;;;;18.54;100.00;101999.44;5168318;28;20382;-70
2021/09/23 08:43:00;;;;;;;38.50;20.30;;;;;;;19.00;100.00;101984.72;5165274;28;20073;-70
2021/09/23 08:45:31;;;;;;;43.58;22.45;;;;;;;19.15;100.00;101982.75;5159247;28;20205;-71
2021/09/23 08:48:02;;;;;;;38.33;20.65;;;;;;;19.61;100.00;101977.72;5150476;28;20029;-71
2021/09/23 08:50:32;;;;;;;38.03;20.08;;;;;;;19.66;100.00;101971.69;5169144;28;20023;-71
2021/09/23 08:53:04;;;;;;;32.80;19.55;;;;;;;20.01;100.00;101967.06;5169084;28;20125;-71
2021/09/23 08:55:35;;;;;;;36.10;18.38;;;;;;;20.17;100.00;101963.16;5166935;28;20026;-71
2021/09/23 08:58:07;;;;;;;33.58;19.25;;;;;;;20.07;100.00;101976.31;5155085;28;20119;-71
2021/09/23 09:01:03;;;;;;;29.95;17.52;;;;;;;20.28;100.00;101978.09;5164533;28;20026;-71
2021/09/23 09:03:36;;;;;;;36.90;18.95;;;;;;;20.49;100.00;101988.91;5158853;28;20101;-71
2021/09/23 09:06:09;;;;;;;31.73;17.23;;;;;;;20.84;100.00;101994.25;5170580;28;20026;-71
2021/09/23 09:08:42;;;;;;;30.95;17.10;;;;;;;20.91;100.00;101981.47;5178649;28;20115;-71
2021/09/23 09:11:14;;;;;;;31.83;18.25;;;;;;;20.53;100.00;101983.88;5165056;28;20029;-71
2021/09/23 09:13:46;;;;;;;35.38;17.98;;;;;;;20.49;100.00;101969.00;5142306;28;20041;-70
2021/09/23 09:16:22;;;;;;;36.95;16.08;;;;;;;20.51;100.00;101977.81;5169559;28;20025;-70
2021/09/23 09:18:56;;;;;;;31.20;16.52;;;;;;;20.51;100.00;101967.72;5167864;28;20506;-70
2021/09/23 09:21:27;;;;;;;26.70;15.50;;;;;;;20.10;100.00;101970.47;5167065;28;20034;-71
2021/09/23 09:24:00;;;;;;;24.52;14.98;;;;;;;20.14;100.00;101967.16;5169717;28;20030;-71
2021/09/23 09:26:37;;;;;;;38.03;16.27;;;;;;;19.99;100.00;101954.72;5166048;28;20065;-71
2021/09/23 09:29:11;;;;;;;28.73;15.02;;;;;;;20.14;100.00;101958.97;5165074;28;20436;-72
2021/09/23 09:31:47;;;;;;;30.95;15.32;;;;;;;20.83;100.00;101957.94;5166151;28;20442;-71
2021/09/23 09:34:19;;;;;;;33.10;13.95;;;;;;;20.57;100.00;101963.34;5167205;28;20599;-71
2021/09/23 09:36:50;;;;;;;24.48;13.77;;;;;;;20.57;100.00;101966.91;5141503;28;20046;-71
2021/09/23 09:39:23;;;;;;;22.45;14.52;;;;;;;20.92;100.00;101977.69;5164258;28;20128;-72
2021/09/23 09:41:53;;;;;;;25.45;14.77;;;;;;;20.80;100.00;101969.28;5174923;28;20378;-71
2021/09/23 09:44:24;;;;;;;24.35;14.95;;;;;;;20.33;100.00;101971.00;5166342;28;20030;-72
2021/09/23 09:46:54;;;;;;;28.48;14.75;;;;;;;20.40;100.00;101966.41;5171357;28;20546;-72
2021/09/23 09:49:25;;;;;;;27.45;14.85;;;;;;;20.49;100.00;101971.72;5157291;28;20075;-69
2021/09/23 09:51:59;;;;;;;22.10;13.48;;;;;;;20.28;100.00;101964.47;5158103;28;20128;-69
2021/09/23 09:54:31;;;;;;;24.25;12.48;;;;;;;20.54;100.00;101958.31;5170179;28;20014;-72
2021/09/23 09:57:04;;;;;;;22.02;12.48;;;;;;;20.90;100.00;101967.00;5166945;28;20479;-72
2021/09/23 09:59:35;;;;;;;24.25;11.43;;;;;;;20.86;100.00;101960.25;5160194;28;20084;-72
2021/09/23 10:02:05;;;;;;;22.25;12.50;;;;;;;21.02;100.00;101967.19;5175556;28;20030;-72
2021/09/23 10:04:37;;;;;;;22.52;11.70;;;;;;;20.96;100.00;101959.84;5177391;28;20104;-72
2021/09/23 10:07:09;;;;;;;24.42;12.48;;;;;;;20.47;100.00;101971.06;5178240;28;20471;-72
2021/09/23 10:09:44;;;;;;;27.15;12.05;;;;;;;20.52;100.00;101963.13;5171783;28;20026;-72
2021/09/23 10:12:16;;;;;;;21.88;11.60;;;;;;;20.48;100.00;101953.66;5158379;28;20476;-72
2021/09/23 10:14:47;;;;;;;22.95;12.23;;;;;;;20.34;100.00;101947.31;5177779;28;20479;-72
2021/09/23 10:17:18;;;;;;;23.27;11.25;;;;;;;20.62;100.00;101942.59;5145049;28;20026;-72
2021/09/23 10:19:49;;;;;;;21.67;11.05;;;;;;;20.92;100.00;101948.50;5156907;28;20227;-71
2021/09/23 10:22:19;;;;;;;21.95;11.70;;;;;;;21.19;100.00;101940.38;5161016;28;20505;-71
2021/09/23 10:24:51;;;;;;;20.33;11.02;;;;;;;21.28;100.00;101951.88;5177267;28;20028;-70
2021/09/23 10:27:59;;;;;;;21.70;11.98;;;;;;;21.13;100.00;101958.38;5160341;28;20092;-71
2021/09/23 10:30:21;;;;;;;19.98;11.00;;;;;;;21.21;100.00;101960.09;5172425;28;20398;-71
2021/09/23 10:32:51;;;;;;;20.60;11.82;;;;;;;21.00;100.00;101963.03;5177745;28;20538;-72
2021/09/23 10:35:23;;;;;;;17.08;10.82;;;;;;;20.63;100.00;101938.84;5177409;28;20038;-71
2021/09/23 10:37:56;;;;;;;24.13;11.88;;;;;;;20.61;100.00;101951.81;5177724;28;20034;-72
2021/09/23 10:40:28;;;;;;;20.13;10.55;;;;;;;20.44;100.00;101945.88;5140893;28;20026;-72
2021/09/23 10:43:06;;;;;;;23.27;11.50;;;;;;;20.16;100.00;101945.13;5177702;28;20056;-71
2021/09/23 10:45:39;;;;;;;22.60;11.93;;;;;;;19.98;100.00;101945.69;5157340;28;20054;-71
2021/09/23 10:48:10;;;;;;;23.65;12.05;;;;;;;20.20;100.00;101940.13;5153078;28;20037;-71
2021/09/23 10:50:41;;;;;;;23.42;11.75;;;;;;;20.69;100.00;101931.72;5156958;28;20483;-71
2021/09/23 10:53:12;;;;;;;25.63;12.80;;;;;;;20.94;100.00;101945.59;5169871;28;20275;-71
2021/09/23 10:55:43;;;;;;;20.15;11.55;;;;;;;21.27;100.00;101939.28;5157268;28;20026;-72
2021/09/23 10:58:16;;;;;;;23.40;12.18;;;;;;;21.21;100.00;101939.09;5175400;28;20025;-72
2021/09/23 11:00:47;;;;;;;20.80;11.63;;;;;;;21.09;100.00;101948.97;5165665;28;20023;-72
2021/09/23 11:03:18;;;;;;;21.48;11.90;;;;;;;21.24;100.00;101945.19;5175266;28;20076;-72
2021/09/23 11:05:48;;;;;;;21.00;10.52;;;;;;;21.45;100.00;101945.84;5163964;28;20022;-72
2021/09/23 11:08:21;;;;;;;23.02;12.32;;;;;;;21.49;100.00;101945.38;5168205;28;20394;-72
2021/09/23 11:10:53;;;;;;;22.85;11.80;;;;;;;21.21;100.00;101940.97;5164514;28;20050;-72
2021/09/23 11:13:23;;;;;;;22.67;12.18;;;;;;;21.04;100.00;101940.56;5168480;28;20018;-72
2021/09/23 11:15:54;;;;;;;18.73;11.13;;;;;;;20.70;100.00;101933.41;5174260;28;20080;-72
2021/09/23 11:18:25;;;;;;;18.48;9.23;;;;;;;20.57;100.00;101927.91;5167519;28;20357;-72
2021/09/23 11:20:56;;;;;;;19.90;10.55;;;;;;;20.60;100.00;101928.34;5175325;28;20054;-72
2021/09/23 11:23:28;;;;;;;22.20;11.40;;;;;;;20.25;100.00;101929.47;5165459;28;20438;-72
2021/09/23 11:26:00;;;;;;;18.88;10.20;;;;;;;20.42;100.00;101926.16;5164141;28;20105;-72